createdAt,value
2023-01-19T00:01:26.182Z,100.00
2023-01-19T00:03:54.016Z,100.00
2023-01-19T00:06:22.449Z,100.00
2023-01-19T00:08:51.191Z,100.00
2023-01-19T00:11:19.421Z,100.00
2023-01-19T00:13:50.502Z,100.00
2023-01-19T00:16:19.233Z,100.00
2023-01-19T00:18:50.382Z,100.00
2023-01-19T00:21:18.630Z,100.00
2023-01-19T00:23:48.386Z,100.00
2023-01-19T00:26:17.294Z,100.00
2023-01-19T00:28:45.346Z,100.00
2023-01-19T00:31:13.403Z,100.00
2023-01-19T00:33:41.212Z,100.00
2023-01-19T00:36:11.433Z,100.00
2023-01-19T00:38:39.788Z,100.00
2023-01-19T00:41:07.942Z,100.00
2023-01-19T00:43:35.773Z,100.00
2023-01-19T00:46:03.616Z,100.00
2023-01-19T00:48:31.465Z,100.00
2023-01-19T00:51:00.052Z,100.00
2023-01-19T00:53:32.405Z,100.00
2023-01-19T00:56:00.212Z,100.00
2023-01-19T00:58:28.045Z,100.00
2023-01-19T01:00:57.761Z,100.00
2023-01-19T01:03:28.134Z,100.00
2023-01-19T01:05:56.117Z,100.00
2023-01-19T01:08:23.928Z,100.00
2023-01-19T01:10:53.574Z,100.00
2023-01-19T01:13:22.440Z,100.00
2023-01-19T01:15:53.059Z,100.00
2023-01-19T01:18:21.666Z,100.00
2023-01-19T01:20:49.720Z,100.00
2023-01-19T01:23:22.822Z,100.00
2023-01-19T01:25:50.811Z,100.00
2023-01-19T01:28:19.973Z,100.00
2023-01-19T01:30:47.750Z,100.00
2023-01-19T01:33:15.762Z,100.00
2023-01-19T01:36:03.541Z,100.00
2023-01-19T01:38:31.322Z,100.00
2023-01-19T01:40:59.159Z,100.00
2023-01-19T01:43:44.764Z,100.00
2023-01-19T01:46:15.487Z,100.00
2023-01-19T01:48:47.625Z,100.00
2023-01-19T01:51:27.424Z,100.00
2023-01-19T01:54:02.413Z,100.00
2023-01-19T01:56:35.349Z,100.00
2023-01-19T01:59:07.694Z,100.00
2023-01-19T02:01:54.466Z,100.00
2023-01-19T02:04:24.773Z,100.00
2023-01-19T02:07:09.936Z,100.00
2023-01-19T02:09:55.788Z,100.00
2023-01-19T02:12:42.126Z,100.00
2023-01-19T02:15:20.151Z,100.00
2023-01-19T02:17:48.510Z,100.00
2023-01-19T02:20:17.299Z,100.00
2023-01-19T02:22:50.367Z,100.00
2023-01-19T02:25:21.117Z,100.00
2023-01-19T02:27:50.132Z,100.00
2023-01-19T02:30:19.037Z,100.00
2023-01-19T02:32:47.039Z,100.00
2023-01-19T02:35:15.031Z,100.00
2023-01-19T02:37:44.079Z,100.00
2023-01-19T02:40:14.260Z,100.00
2023-01-19T02:42:45.419Z,100.00
2023-01-19T02:45:15.938Z,100.00
2023-01-19T02:47:46.914Z,100.00
2023-01-19T02:50:41.815Z,100.00
2023-01-19T02:53:39.510Z,100.00
2023-01-19T02:56:34.792Z,100.00
2023-01-19T02:59:10.122Z,100.00
2023-01-19T03:01:46.160Z,100.00
2023-01-19T03:04:23.762Z,100.00
2023-01-19T03:06:56.763Z,100.00
2023-01-19T03:09:32.348Z,100.00
2023-01-19T03:12:06.143Z,100.00
2023-01-19T03:14:41.241Z,100.00
2023-01-19T03:17:12.509Z,100.00
2023-01-19T03:19:42.936Z,100.00
2023-01-19T03:22:15.917Z,100.00
2023-01-19T03:24:47.051Z,100.00
2023-01-19T03:27:18.494Z,100.00
2023-01-19T03:29:51.910Z,100.00
2023-01-19T03:32:23.275Z,100.00
2023-01-19T03:34:52.949Z,100.00
2023-01-19T03:37:22.523Z,100.00
2023-01-19T03:39:50.916Z,100.00
2023-01-19T03:42:19.416Z,100.00
2023-01-19T03:44:50.576Z,100.00
2023-01-19T03:47:20.384Z,100.00
2023-01-19T03:49:50.744Z,100.00
2023-01-19T03:52:18.500Z,100.00
2023-01-19T03:54:46.327Z,100.00
2023-01-19T03:57:14.083Z,100.00
2023-01-19T03:59:41.872Z,100.00
2023-01-19T04:02:11.100Z,100.00
2023-01-19T04:04:38.946Z,100.00
2023-01-19T04:07:06.914Z,100.00
2023-01-19T04:09:34.711Z,100.00
2023-01-19T04:12:03.753Z,100.00
2023-01-19T04:14:31.612Z,100.00
2023-01-19T04:16:59.466Z,100.00
2023-01-19T04:19:28.619Z,100.00
2023-01-19T04:21:56.939Z,100.00
2023-01-19T04:24:24.703Z,100.00
2023-01-19T04:26:53.386Z,100.00
2023-01-19T04:29:21.194Z,100.00
2023-01-19T04:31:48.987Z,100.00
2023-01-19T04:34:16.993Z,100.00
2023-01-19T04:36:46.912Z,100.00
2023-01-19T04:39:14.847Z,100.00
2023-01-19T04:41:42.657Z,100.00
2023-01-19T04:44:10.533Z,100.00
2023-01-19T04:46:38.359Z,100.00
2023-01-19T04:49:06.263Z,100.00
2023-01-19T04:51:34.300Z,100.00
2023-01-19T04:54:03.952Z,100.00
2023-01-19T04:56:32.077Z,100.00
2023-01-19T04:58:59.827Z,100.00
2023-01-19T05:01:28.064Z,100.00
2023-01-19T05:03:55.941Z,100.00
2023-01-19T05:06:23.728Z,100.00
2023-01-19T05:08:51.684Z,100.00
2023-01-19T05:11:20.975Z,100.00
2023-01-19T05:13:50.258Z,100.00
2023-01-19T05:16:18.873Z,100.00
2023-01-19T05:18:46.707Z,100.00
2023-01-19T05:21:14.549Z,100.00
2023-01-19T05:23:42.421Z,100.00
2023-01-19T05:26:10.507Z,100.00
2023-01-19T05:28:39.711Z,100.00
2023-01-19T05:31:07.896Z,100.00
2023-01-19T05:33:35.712Z,100.00
2023-01-19T05:36:04.325Z,100.00
2023-01-19T05:38:35.924Z,100.00
2023-01-19T05:41:04.145Z,100.00
2023-01-19T05:43:32.014Z,100.00
2023-01-19T05:46:01.171Z,100.00
2023-01-19T05:48:28.928Z,100.00
2023-01-19T05:50:59.773Z,100.00
2023-01-19T05:53:27.557Z,100.00
2023-01-19T05:56:00.983Z,100.00
2023-01-19T05:58:28.855Z,100.00
2023-01-19T06:00:56.778Z,100.00
2023-01-19T06:03:25.993Z,100.00
2023-01-19T06:05:53.898Z,100.00
2023-01-19T06:08:21.621Z,100.00
2023-01-19T06:10:49.382Z,100.00
2023-01-19T06:13:17.418Z,100.00
2023-01-19T06:15:45.319Z,100.00
2023-01-19T06:18:14.747Z,100.00
2023-01-19T06:20:43.952Z,100.00
2023-01-19T06:23:11.722Z,100.00
2023-01-19T06:25:39.614Z,100.00
2023-01-19T06:28:07.431Z,100.00
2023-01-19T06:30:35.267Z,100.00
2023-01-19T06:33:03.263Z,100.00
2023-01-19T06:35:31.152Z,100.00
2023-01-19T06:38:00.330Z,100.00
2023-01-19T06:40:28.193Z,100.00
2023-01-19T06:42:55.993Z,100.00
2023-01-19T06:45:23.776Z,100.00
2023-01-19T06:47:51.556Z,100.00
2023-01-19T06:50:19.607Z,100.00
2023-01-19T06:52:50.904Z,100.00
2023-01-19T06:55:20.569Z,100.00
2023-01-19T06:57:50.011Z,100.00
2023-01-19T07:00:19.089Z,100.00
2023-01-19T07:02:46.876Z,100.00
2023-01-19T07:05:14.707Z,100.00
2023-01-19T07:07:44.782Z,100.00
2023-01-19T07:10:15.630Z,100.00
2023-01-19T07:12:46.473Z,100.00
2023-01-19T07:15:15.199Z,100.00
2023-01-19T07:17:43.117Z,100.00
2023-01-19T07:20:13.076Z,100.00
2023-01-19T07:22:41.374Z,100.00
2023-01-19T07:25:10.272Z,100.00
2023-01-19T07:27:38.042Z,100.00
2023-01-19T07:30:08.786Z,100.00
2023-01-19T07:32:36.935Z,100.00
2023-01-19T07:35:05.198Z,100.00
2023-01-19T07:37:32.971Z,100.00
2023-01-19T07:40:01.417Z,100.00
2023-01-19T07:42:29.095Z,100.00
2023-01-19T07:44:57.085Z,100.00
2023-01-19T07:47:26.262Z,100.00
2023-01-19T07:49:54.122Z,100.00
2023-01-19T07:52:22.905Z,100.00
2023-01-19T07:54:51.673Z,100.00
2023-01-19T07:57:20.589Z,100.00
2023-01-19T07:59:48.388Z,100.00
2023-01-19T08:02:17.284Z,100.00
2023-01-19T08:04:49.103Z,100.00
2023-01-19T08:07:16.968Z,100.00
2023-01-19T08:09:45.272Z,100.00
2023-01-19T08:12:13.111Z,100.00
2023-01-19T08:14:40.919Z,100.00
2023-01-19T08:17:08.678Z,100.00
2023-01-19T08:19:36.457Z,100.00
2023-01-19T08:22:06.108Z,100.00
2023-01-19T08:24:33.865Z,100.00
2023-01-19T08:27:03.566Z,100.00
2023-01-19T08:29:31.942Z,100.00
2023-01-19T08:32:02.236Z,100.00
2023-01-19T08:34:32.010Z,100.00
2023-01-19T08:37:00.282Z,100.00
2023-01-19T08:39:29.413Z,100.00
2023-01-19T08:41:58.111Z,100.00
2023-01-19T08:44:25.943Z,100.00
2023-01-19T08:46:54.238Z,100.00
2023-01-19T08:49:22.058Z,100.00
2023-01-19T08:51:49.869Z,100.00
2023-01-19T08:54:18.772Z,100.00
2023-01-19T08:56:47.989Z,100.00
2023-01-19T08:59:16.888Z,100.00
2023-01-19T09:01:44.890Z,100.00
2023-01-19T09:04:12.808Z,100.00
2023-01-19T09:06:40.715Z,100.00
2023-01-19T09:09:08.492Z,100.00
2023-01-19T09:11:36.347Z,100.00
2023-01-19T09:14:05.997Z,100.00
2023-01-19T09:16:34.424Z,100.00
2023-01-19T09:19:02.187Z,100.00
2023-01-19T09:21:30.095Z,100.00
2023-01-19T09:23:57.958Z,100.00
2023-01-19T09:26:26.160Z,100.00
2023-01-19T09:28:53.956Z,99.82
2023-01-19T09:31:23.689Z,100.00
2023-01-19T09:33:51.516Z,99.45
2023-01-19T09:36:19.331Z,99.80
2023-01-19T09:38:47.150Z,99.46
2023-01-19T09:41:21.391Z,99.36
2023-01-19T09:43:53.988Z,99.45
2023-01-19T09:46:30.773Z,100.00
2023-01-19T09:49:04.664Z,99.88
2023-01-19T09:51:37.181Z,100.00
2023-01-19T09:54:12.360Z,99.96
2023-01-19T09:56:40.320Z,96.56
2023-01-19T09:59:20.611Z,96.70
2023-01-19T10:02:18.773Z,96.82
2023-01-19T10:04:55.269Z,96.47
2023-01-19T10:07:34.662Z,96.24
2023-01-19T10:10:20.741Z,95.86
2023-01-19T10:13:11.034Z,95.49
2023-01-19T10:15:52.289Z,94.61
2023-01-19T10:18:25.638Z,96.33
2023-01-19T10:20:57.729Z,95.61
2023-01-19T10:23:40.804Z,95.05
2023-01-19T10:26:13.942Z,92.66
2023-01-19T10:28:42.287Z,93.64
2023-01-19T10:31:10.260Z,88.20
2023-01-19T10:33:39.674Z,91.15
2023-01-19T10:36:17.829Z,92.56
2023-01-19T10:38:46.157Z,92.64
2023-01-19T10:41:15.874Z,83.65
2023-01-19T10:43:45.700Z,90.00
2023-01-19T10:46:21.565Z,89.51
2023-01-19T10:48:52.471Z,90.12
2023-01-19T10:51:20.617Z,88.90
2023-01-19T10:53:58.139Z,88.60
2023-01-19T10:56:28.628Z,89.96
2023-01-19T10:58:56.448Z,89.80
2023-01-19T11:01:26.187Z,88.31
2023-01-19T11:03:57.124Z,86.20
2023-01-19T11:06:28.029Z,86.79
2023-01-19T11:09:16.606Z,83.47
2023-01-19T11:11:47.223Z,86.07
2023-01-19T11:14:20.180Z,85.25
2023-01-19T11:16:52.078Z,84.26
2023-01-19T11:19:32.372Z,79.00
2023-01-19T11:22:27.587Z,72.96
2023-01-19T11:24:58.295Z,67.80
2023-01-19T11:27:27.514Z,77.46
2023-01-19T11:30:09.785Z,76.11
2023-01-19T11:32:37.938Z,79.40
2023-01-19T11:35:33.443Z,74.61
2023-01-19T11:38:19.081Z,75.95
2023-01-19T11:40:54.773Z,80.27
2023-01-19T11:43:24.475Z,81.47
2023-01-19T11:45:52.890Z,83.26
2023-01-19T11:48:28.009Z,79.32
2023-01-19T11:51:01.552Z,81.38
2023-01-19T11:53:33.903Z,81.58
2023-01-19T11:56:05.763Z,83.27
2023-01-19T11:58:37.868Z,83.40
2023-01-19T12:01:12.879Z,84.13
2023-01-19T12:03:42.710Z,67.31
2023-01-19T12:06:16.327Z,81.17
2023-01-19T12:08:48.084Z,82.52
2023-01-19T12:11:21.561Z,81.32
2023-01-19T12:13:50.652Z,81.98
2023-01-19T12:16:21.868Z,81.69
2023-01-19T12:18:56.195Z,80.31
2023-01-19T12:21:25.438Z,79.14
2023-01-19T12:24:02.257Z,81.72
2023-01-19T12:26:35.457Z,80.98
2023-01-19T12:29:08.775Z,81.29
2023-01-19T12:31:36.725Z,82.91
2023-01-19T12:34:32.388Z,73.53
2023-01-19T12:37:07.224Z,81.73
2023-01-19T12:39:36.254Z,82.45
2023-01-19T12:42:14.317Z,82.23
2023-01-19T12:44:43.625Z,80.98
2023-01-19T12:47:24.307Z,80.73
2023-01-19T12:49:56.578Z,79.98
2023-01-19T12:52:34.741Z,74.36
2023-01-19T12:55:16.736Z,79.22
2023-01-19T12:57:49.214Z,64.25
2023-01-19T13:00:36.928Z,74.36
2023-01-19T13:03:26.639Z,77.97
2023-01-19T13:05:56.715Z,76.90
2023-01-19T13:09:00.578Z,62.76
2023-01-19T13:11:33.324Z,75.77
2023-01-19T13:14:34.762Z,64.19
2023-01-19T13:17:27.556Z,64.79
2023-01-19T13:20:14.254Z,78.21
2023-01-19T13:23:09.519Z,74.35
2023-01-19T13:25:38.955Z,75.44
2023-01-19T13:28:12.070Z,75.36
2023-01-19T13:30:54.007Z,72.33
2023-01-19T13:33:25.148Z,77.00
2023-01-19T13:35:55.359Z,75.41
2023-01-19T13:38:24.791Z,74.87
2023-01-19T13:40:55.961Z,75.26
2023-01-19T13:43:29.360Z,75.35
2023-01-19T13:45:57.602Z,76.07
2023-01-19T13:48:26.212Z,75.64
2023-01-19T13:50:59.720Z,75.09
2023-01-19T13:53:27.711Z,76.08
2023-01-19T13:56:23.278Z,61.39
2023-01-19T13:59:09.929Z,71.50
2023-01-19T14:01:40.757Z,75.85
2023-01-19T14:04:25.812Z,75.32
2023-01-19T14:06:55.730Z,78.07
2023-01-19T14:09:23.744Z,78.75
2023-01-19T14:12:09.552Z,75.71
2023-01-19T14:14:37.551Z,78.15
2023-01-19T14:17:05.922Z,78.31
2023-01-19T14:19:49.179Z,75.30
2023-01-19T14:22:17.033Z,77.84
2023-01-19T14:24:44.865Z,78.80
2023-01-19T14:27:24.216Z,79.11
2023-01-19T14:29:54.691Z,80.78
2023-01-19T14:32:24.114Z,79.15
2023-01-19T14:35:12.470Z,79.85
2023-01-19T14:37:48.437Z,74.30
2023-01-19T14:40:19.472Z,78.51
2023-01-19T14:42:52.671Z,79.02
2023-01-19T14:45:23.169Z,79.74
2023-01-19T14:47:57.464Z,78.47
2023-01-19T14:50:27.793Z,78.04
2023-01-19T14:52:58.351Z,78.59
2023-01-19T14:55:33.050Z,78.10
2023-01-19T14:58:02.245Z,78.81
2023-01-19T15:00:30.442Z,77.52
2023-01-19T15:02:58.081Z,63.17
2023-01-19T15:05:25.969Z,77.61
2023-01-19T15:07:54.128Z,77.80
2023-01-19T15:10:24.598Z,78.65
2023-01-19T15:12:54.298Z,79.03
2023-01-19T15:15:33.391Z,79.62
2023-01-19T15:18:03.842Z,78.75
2023-01-19T15:20:31.792Z,78.40
2023-01-19T15:22:59.583Z,78.11
2023-01-19T15:25:27.350Z,78.33
2023-01-19T15:27:59.587Z,77.99
2023-01-19T15:30:31.014Z,78.87
2023-01-19T15:32:59.222Z,80.03
2023-01-19T15:35:27.250Z,79.90
2023-01-19T15:37:55.069Z,80.89
2023-01-19T15:40:23.340Z,80.69
2023-01-19T15:42:51.951Z,81.02
2023-01-19T15:45:34.628Z,79.49
2023-01-19T15:48:04.011Z,81.10
2023-01-19T15:50:32.490Z,81.50
2023-01-19T15:53:00.782Z,81.69
2023-01-19T15:55:29.299Z,82.19
2023-01-19T15:58:01.328Z,82.63
2023-01-19T16:00:32.251Z,82.98
2023-01-19T16:03:01.800Z,83.33
2023-01-19T16:05:41.847Z,83.39
2023-01-19T16:08:11.073Z,83.18
2023-01-19T16:10:38.997Z,83.18
2023-01-19T16:13:06.821Z,83.18
2023-01-19T16:15:37.105Z,83.66
2023-01-19T16:18:05.831Z,83.55
2023-01-19T16:20:33.760Z,83.99
2023-01-19T16:23:16.802Z,84.38
2023-01-19T16:25:45.486Z,84.97
2023-01-19T16:28:28.689Z,84.95
2023-01-19T16:30:58.073Z,85.44
2023-01-19T16:33:25.990Z,85.96
2023-01-19T16:35:54.230Z,86.10
2023-01-19T16:38:23.288Z,86.29
2023-01-19T16:40:51.145Z,86.64
2023-01-19T16:43:19.264Z,86.82
2023-01-19T16:46:02.718Z,86.19
2023-01-19T16:48:32.218Z,87.04
2023-01-19T16:51:02.085Z,86.70
2023-01-19T16:53:30.783Z,86.58
2023-01-19T16:55:58.899Z,86.53
2023-01-19T16:58:26.722Z,86.80
2023-01-19T17:00:54.601Z,86.98
2023-01-19T17:03:23.910Z,85.47
2023-01-19T17:05:52.301Z,85.67
2023-01-19T17:08:20.396Z,80.13
2023-01-19T17:10:48.501Z,83.72
2023-01-19T17:13:16.375Z,83.90
2023-01-19T17:15:44.303Z,85.17
2023-01-19T17:18:12.115Z,85.16
2023-01-19T17:20:41.293Z,86.43
2023-01-19T17:23:09.093Z,85.25
2023-01-19T17:25:36.881Z,86.44
2023-01-19T17:28:04.861Z,85.06
2023-01-19T17:30:32.743Z,85.32
2023-01-19T17:33:00.638Z,85.91
2023-01-19T17:35:28.429Z,86.50
2023-01-19T17:37:58.365Z,86.96
2023-01-19T17:40:26.667Z,87.37
2023-01-19T17:42:54.429Z,87.65
2023-01-19T17:45:22.272Z,87.90
2023-01-19T17:47:50.683Z,87.59
2023-01-19T17:50:18.889Z,87.98
2023-01-19T17:52:46.783Z,88.25
2023-01-19T17:55:16.509Z,88.59
2023-01-19T17:57:44.342Z,89.28
2023-01-19T18:00:13.522Z,88.34
2023-01-19T18:02:41.626Z,88.66
2023-01-19T18:05:12.608Z,89.14
2023-01-19T18:07:40.721Z,88.90
2023-01-19T18:10:10.915Z,89.33
2023-01-19T18:12:40.075Z,87.54
2023-01-19T18:15:09.644Z,86.88
2023-01-19T18:17:37.534Z,85.92
2023-01-19T18:20:06.055Z,85.69
2023-01-19T18:22:33.708Z,80.37
2023-01-19T18:25:01.709Z,85.05
2023-01-19T18:27:30.292Z,86.66
2023-01-19T18:29:59.268Z,83.18
2023-01-19T18:32:27.325Z,86.52
2023-01-19T18:34:55.245Z,88.48
2023-01-19T18:37:23.043Z,88.21
2023-01-19T18:39:50.902Z,88.75
2023-01-19T18:42:18.743Z,88.64
2023-01-19T18:44:46.522Z,89.42
2023-01-19T18:47:15.685Z,89.49
2023-01-19T18:49:43.495Z,89.88
2023-01-19T18:52:11.382Z,89.61
2023-01-19T18:54:39.238Z,89.92
2023-01-19T18:57:07.023Z,90.33
2023-01-19T18:59:35.004Z,90.61
2023-01-19T19:02:05.162Z,90.05
2023-01-19T19:04:34.505Z,89.61
2023-01-19T19:07:02.314Z,89.57
2023-01-19T19:09:30.230Z,90.22
2023-01-19T19:11:58.094Z,90.02
2023-01-19T19:14:25.906Z,89.82
2023-01-19T19:16:53.705Z,89.03
2023-01-19T19:19:21.538Z,89.77
2023-01-19T19:21:52.122Z,89.86
2023-01-19T19:24:19.914Z,90.18
2023-01-19T19:26:47.697Z,90.19
2023-01-19T19:29:15.554Z,90.44
2023-01-19T19:31:43.431Z,90.63
2023-01-19T19:34:12.410Z,90.88
2023-01-19T19:36:41.962Z,90.06
2023-01-19T19:39:11.262Z,90.49
2023-01-19T19:41:39.035Z,90.55
2023-01-19T19:44:06.925Z,90.74
2023-01-19T19:46:34.735Z,91.04
2023-01-19T19:49:02.555Z,91.46
2023-01-19T19:51:30.443Z,91.59
2023-01-19T19:54:00.268Z,91.93
2023-01-19T19:56:30.918Z,92.08
2023-01-19T19:59:00.760Z,91.52
2023-01-19T20:01:33.546Z,92.29
2023-01-19T20:04:06.997Z,92.19
2023-01-19T20:06:38.595Z,92.27
2023-01-19T20:09:07.443Z,92.53
2023-01-19T20:11:37.149Z,92.54
2023-01-19T20:14:06.503Z,92.69
2023-01-19T20:16:34.363Z,92.72
2023-01-19T20:19:02.893Z,92.85
2023-01-19T20:21:32.058Z,93.02
2023-01-19T20:24:02.168Z,93.10
2023-01-19T20:26:32.060Z,93.46
2023-01-19T20:29:06.112Z,93.35
2023-01-19T20:31:36.600Z,93.26
2023-01-19T20:34:07.060Z,93.58
2023-01-19T20:36:35.234Z,93.64
2023-01-19T20:39:08.443Z,93.92
2023-01-19T20:41:43.129Z,94.22
2023-01-19T20:44:13.109Z,94.22
2023-01-19T20:46:41.145Z,94.19
2023-01-19T20:49:10.152Z,94.97
2023-01-19T20:51:43.069Z,94.53
2023-01-19T20:54:11.186Z,94.87
2023-01-19T20:56:41.257Z,94.72
2023-01-19T20:59:09.408Z,94.72
2023-01-19T21:01:39.193Z,95.11
2023-01-19T21:04:07.258Z,95.03
2023-01-19T21:06:35.646Z,94.71
2023-01-19T21:09:04.106Z,95.27
2023-01-19T21:11:32.136Z,95.21
2023-01-19T21:14:00.008Z,95.29
2023-01-19T21:16:30.056Z,95.58
2023-01-19T21:18:59.568Z,95.25
2023-01-19T21:21:31.913Z,95.72
2023-01-19T21:24:01.083Z,95.74
2023-01-19T21:26:30.679Z,95.79
2023-01-19T21:28:58.756Z,95.28
2023-01-19T21:31:27.978Z,95.59
2023-01-19T21:34:03.973Z,95.31
2023-01-19T21:36:31.841Z,95.74
2023-01-19T21:39:01.236Z,95.56
2023-01-19T21:41:30.903Z,95.93
2023-01-19T21:43:59.925Z,96.34
2023-01-19T21:46:29.358Z,96.05
2023-01-19T21:48:57.884Z,96.60
2023-01-19T21:51:27.253Z,96.18
2023-01-19T21:53:59.376Z,96.44
2023-01-19T21:56:28.087Z,96.96
2023-01-19T21:58:56.870Z,96.59
2023-01-19T22:01:25.131Z,97.13
2023-01-19T22:03:55.001Z,96.93
2023-01-19T22:06:23.819Z,96.83
2023-01-19T22:08:53.273Z,97.52
2023-01-19T22:11:22.255Z,97.64
2023-01-19T22:13:50.047Z,97.68
2023-01-19T22:16:19.785Z,97.87
2023-01-19T22:18:52.810Z,98.19
2023-01-19T22:21:22.777Z,98.34
2023-01-19T22:23:51.569Z,98.64
2023-01-19T22:26:20.751Z,98.90
2023-01-19T22:28:49.242Z,98.39
2023-01-19T22:31:18.878Z,98.42
2023-01-19T22:33:48.982Z,98.81
2023-01-19T22:36:19.430Z,98.87
2023-01-19T22:38:51.109Z,98.69
2023-01-19T22:41:22.107Z,98.65
2023-01-19T22:43:50.628Z,98.52
2023-01-19T22:46:20.037Z,98.73
2023-01-19T22:48:48.260Z,98.79
2023-01-19T22:51:17.203Z,98.55
2023-01-19T22:53:44.998Z,98.96
2023-01-19T22:56:15.126Z,98.79
2023-01-19T22:58:45.258Z,99.77
2023-01-19T23:01:14.709Z,99.29
2023-01-19T23:03:42.929Z,99.37
2023-01-19T23:06:12.649Z,99.01
2023-01-19T23:08:41.599Z,99.12
2023-01-19T23:11:11.174Z,98.82
2023-01-19T23:13:39.597Z,99.34
2023-01-19T23:16:10.140Z,99.24
2023-01-19T23:18:38.220Z,99.21
2023-01-19T23:21:07.261Z,98.73
2023-01-19T23:23:35.767Z,99.11
2023-01-19T23:26:04.652Z,98.75
2023-01-19T23:28:34.093Z,99.06
2023-01-19T23:31:02.260Z,99.26
2023-01-19T23:33:31.468Z,98.95
2023-01-19T23:35:59.318Z,98.56
2023-01-19T23:38:27.137Z,98.68
2023-01-19T23:40:57.921Z,98.82
2023-01-19T23:43:25.684Z,98.58
2023-01-19T23:45:53.504Z,99.00
2023-01-19T23:48:21.321Z,98.36
2023-01-19T23:50:50.495Z,98.62
2023-01-19T23:53:18.229Z,98.44
2023-01-19T23:55:46.048Z,98.79
2023-01-19T23:58:13.886Z,99.15
